AAL195 KDEN-KDFW
Flight info
| Callsign | AAL195 |
|---|---|
| Flight time | N/A |
| Altitude | 35000 |
| Route | KDEN/17L SLEEK2 SLEEK DCT EZEEE DCT MDANO JOVEM6 KDFW/36L |
| Aircraft | B738/M-VGDW/C |
Departure
| Time | 2026-05-07 02:37 |
|---|---|
| Airport | Denver International Airport (KDEN) |
Arrival
| Time | N/A |
|---|---|
| Airport | Dallas Fort Worth International Airport (KDFW) |
| Time | Latitude | Longitude | Altitude | Speed | Heading |
|---|---|---|---|---|---|
| 2026-05-07 01:58 | 39.85948 | -104.66665 | 5425 ft | 0 kts | 180° |
| 2026-05-07 02:27 | 39.85950 | -104.66665 | 5425 ft | 1 kts | 180° |
| 2026-05-07 02:28 | 39.85965 | -104.66665 | 5425 ft | 2 kts | 180° |
| 2026-05-07 02:28 | 39.85980 | -104.66665 | 5425 ft | 2 kts | 180° |
| 2026-05-07 02:28 | 39.85995 | -104.66666 | 5425 ft | 2 kts | 180° |
| 2026-05-07 02:28 | 39.86010 | -104.66665 | 5424 ft | 2 kts | 180° |
| 2026-05-07 02:29 | 39.86023 | -104.66666 | 5424 ft | 0 kts | 180° |
| 2026-05-07 02:29 | 39.86024 | -104.66666 | 5424 ft | 0 kts | 180° |
| 2026-05-07 02:31 | 39.86020 | -104.66666 | 5424 ft | 1 kts | 179° |
| 2026-05-07 02:31 | 39.86018 | -104.66655 | 5424 ft | 2 kts | 69° |
| 2026-05-07 02:31 | 39.86039 | -104.66603 | 5423 ft | 9 kts | 61° |
| 2026-05-07 02:32 | 39.86082 | -104.66506 | 5423 ft | 14 kts | 60° |
| 2026-05-07 02:32 | 39.86106 | -104.66360 | 5423 ft | 18 kts | 91° |
| 2026-05-07 02:32 | 39.86160 | -104.66229 | 5420 ft | 20 kts | 0° |
| 2026-05-07 02:32 | 39.86315 | -104.66228 | 5415 ft | 19 kts | 359° |
| 2026-05-07 02:33 | 39.86407 | -104.66229 | 5412 ft | 14 kts | 360° |
| 2026-05-07 02:33 | 39.86498 | -104.66175 | 5408 ft | 17 kts | 80° |
| 2026-05-07 02:33 | 39.86497 | -104.66003 | 5405 ft | 20 kts | 92° |
| 2026-05-07 02:33 | 39.86494 | -104.65797 | 5397 ft | 25 kts | 92° |
| 2026-05-07 02:34 | 39.86493 | -104.65542 | 5387 ft | 30 kts | 86° |
| 2026-05-07 02:34 | 39.86492 | -104.65262 | 5376 ft | 32 kts | 91° |
| 2026-05-07 02:34 | 39.86490 | -104.65057 | 5366 ft | 11 kts | 90° |
| 2026-05-07 02:34 | 39.86489 | -104.64932 | 5360 ft | 15 kts | 91° |
| 2026-05-07 02:35 | 39.86488 | -104.64794 | 5353 ft | 14 kts | 87° |
| 2026-05-07 02:35 | 39.86490 | -104.64645 | 5345 ft | 18 kts | 90° |
| 2026-05-07 02:35 | 39.86487 | -104.64460 | 5334 ft | 22 kts | 90° |
| 2026-05-07 02:35 | 39.86485 | -104.64259 | 5325 ft | 21 kts | 93° |
| 2026-05-07 02:36 | 39.86467 | -104.64146 | 5319 ft | 10 kts | 138° |
| 2026-05-07 02:36 | 39.86404 | -104.64134 | 5318 ft | 8 kts | 178° |
| 2026-05-07 02:36 | 39.86290 | -104.64133 | 5318 ft | 42 kts | 180° |
| 2026-05-07 02:36 | 39.85762 | -104.64138 | 5320 ft | 107 kts | 180° |
| 2026-05-07 02:37 | 39.84819 | -104.64148 | 5339 ft | 161 kts | 180° |
| 2026-05-07 02:37 | 39.83615 | -104.64150 | 5765 ft | 176 kts | 178° |
| 2026-05-07 02:37 | 39.82365 | -104.64107 | 6311 ft | 191 kts | 181° |
| 2026-05-07 02:37 | 39.81073 | -104.64166 | 7104 ft | 189 kts | 182° |
| 2026-05-07 02:38 | 39.79697 | -104.64214 | 7463 ft | 206 kts | 181° |
| 2026-05-07 02:38 | 39.78218 | -104.64237 | 7860 ft | 221 kts | 181° |
| 2026-05-07 02:38 | 39.76617 | -104.64254 | 8227 ft | 239 kts | 181° |
| 2026-05-07 02:38 | 39.74901 | -104.64274 | 8634 ft | 256 kts | 182° |
| 2026-05-07 02:39 | 39.73028 | -104.64298 | 9031 ft | 274 kts | 182° |
| 2026-05-07 02:39 | 39.71073 | -104.64323 | 9477 ft | 291 kts | 182° |
| 2026-05-07 02:39 | 39.69010 | -104.64349 | 9952 ft | 303 kts | 182° |
| 2026-05-07 02:39 | 39.66868 | -104.64377 | 9992 ft | 312 kts | 182° |
| 2026-05-07 02:40 | 39.64723 | -104.64280 | 10005 ft | 307 kts | 174° |
| 2026-05-07 02:40 | 39.62635 | -104.63596 | 10148 ft | 320 kts | 160° |
| 2026-05-07 02:40 | 39.60527 | -104.62444 | 10611 ft | 335 kts | 156° |
| 2026-05-07 02:40 | 39.58374 | -104.61150 | 11045 ft | 350 kts | 155° |
| 2026-05-07 02:41 | 39.56111 | -104.59795 | 11373 ft | 368 kts | 155° |
| 2026-05-07 02:41 | 39.53734 | -104.58411 | 11926 ft | 378 kts | 156° |
| 2026-05-07 02:41 | 39.51266 | -104.57012 | 12554 ft | 386 kts | 156° |
| 2026-05-07 02:41 | 39.48810 | -104.55643 | 13203 ft | 392 kts | 156° |
| 2026-05-07 02:42 | 39.46267 | -104.54237 | 13863 ft | 398 kts | 156° |
| 2026-05-07 02:42 | 39.43721 | -104.52832 | 14552 ft | 403 kts | 156° |
| 2026-05-07 02:42 | 39.41148 | -104.51414 | 15266 ft | 407 kts | 156° |
| 2026-05-07 02:42 | 39.38540 | -104.49977 | 15934 ft | 412 kts | 155° |
| 2026-05-07 02:43 | 39.35902 | -104.48523 | 16614 ft | 416 kts | 155° |
| 2026-05-07 02:43 | 39.33193 | -104.47028 | 17276 ft | 420 kts | 155° |
| 2026-05-07 02:43 | 39.30515 | -104.45554 | 17921 ft | 424 kts | 155° |
| 2026-05-07 02:43 | 39.27808 | -104.44062 | 18551 ft | 428 kts | 155° |
| 2026-05-07 02:44 | 39.25038 | -104.42537 | 19147 ft | 433 kts | 155° |
| 2026-05-07 02:44 | 39.22275 | -104.41016 | 19805 ft | 435 kts | 154° |
| 2026-05-07 02:44 | 39.19490 | -104.39449 | 20422 ft | 438 kts | 153° |
| 2026-05-07 02:44 | 39.16711 | -104.37818 | 20999 ft | 442 kts | 153° |
| 2026-05-07 02:45 | 39.13866 | -104.36244 | 21596 ft | 445 kts | 157° |
| 2026-05-07 02:45 | 39.10928 | -104.34969 | 22104 ft | 450 kts | 162° |
| 2026-05-07 02:45 | 39.07920 | -104.33897 | 22637 ft | 454 kts | 165° |
| 2026-05-07 02:45 | 39.04804 | -104.32900 | 23143 ft | 458 kts | 166° |
| 2026-05-07 02:46 | 39.01716 | -104.31963 | 23756 ft | 459 kts | 166° |
| 2026-05-07 02:46 | 38.98597 | -104.31029 | 24158 ft | 465 kts | 166° |
| 2026-05-07 02:46 | 38.95427 | -104.30074 | 24772 ft | 465 kts | 166° |
| 2026-05-07 02:46 | 38.92279 | -104.29117 | 25211 ft | 470 kts | 166° |
| 2026-05-07 02:47 | 38.89063 | -104.28127 | 25711 ft | 473 kts | 166° |
| 2026-05-07 02:47 | 38.85871 | -104.27134 | 26104 ft | 477 kts | 165° |
| 2026-05-07 02:47 | 38.82665 | -104.26131 | 26669 ft | 478 kts | 165° |
| 2026-05-07 02:47 | 38.79397 | -104.25104 | 26989 ft | 484 kts | 165° |
| 2026-05-07 02:48 | 38.76142 | -104.24078 | 27483 ft | 485 kts | 165° |
| 2026-05-07 02:48 | 38.72870 | -104.23043 | 27911 ft | 488 kts | 165° |
| 2026-05-07 02:48 | 38.69538 | -104.21989 | 28230 ft | 493 kts | 165° |
| 2026-05-07 02:48 | 38.66199 | -104.20931 | 28730 ft | 493 kts | 165° |
| 2026-05-07 02:49 | 38.62851 | -104.19872 | 29049 ft | 498 kts | 165° |
| 2026-05-07 02:49 | 38.59468 | -104.18801 | 29455 ft | 500 kts | 165° |
| 2026-05-07 02:49 | 38.56088 | -104.17705 | 29732 ft | 505 kts | 163° |
| 2026-05-07 02:49 | 38.52736 | -104.16320 | 30206 ft | 502 kts | 157° |
| 2026-05-07 02:50 | 38.49560 | -104.14468 | 30843 ft | 495 kts | 150° |
| 2026-05-07 02:50 | 38.46601 | -104.12263 | 31399 ft | 490 kts | 144° |
| 2026-05-07 02:50 | 38.43828 | -104.09727 | 31816 ft | 487 kts | 139° |
| 2026-05-07 02:50 | 38.41224 | -104.06981 | 32240 ft | 485 kts | 136° |
| 2026-05-07 02:51 | 38.38701 | -104.04127 | 32718 ft | 482 kts | 135° |
| 2026-05-07 02:51 | 38.36214 | -104.01249 | 33111 ft | 482 kts | 134° |
| 2026-05-07 02:51 | 38.33723 | -103.98373 | 33474 ft | 482 kts | 135° |
| 2026-05-07 02:51 | 38.31231 | -103.95537 | 33789 ft | 483 kts | 136° |
| 2026-05-07 02:52 | 38.28690 | -103.92696 | 34116 ft | 482 kts | 137° |
| 2026-05-07 02:52 | 38.26123 | -103.89874 | 34432 ft | 482 kts | 137° |
| 2026-05-07 02:52 | 38.23568 | -103.87096 | 34726 ft | 483 kts | 138° |
| 2026-05-07 02:52 | 38.20993 | -103.84323 | 35003 ft | 483 kts | 139° |
| 2026-05-07 02:53 | 38.18398 | -103.81542 | 35163 ft | 485 kts | 139° |
| 2026-05-07 02:53 | 38.15807 | -103.78776 | 35177 ft | 485 kts | 139° |
| 2026-05-07 02:53 | 38.10640 | -103.73278 | 35175 ft | 481 kts | 139° |
| 2026-05-07 02:54 | 38.05448 | -103.67766 | 35185 ft | 482 kts | 140° |
| 2026-05-07 02:54 | 38.00277 | -103.62281 | 35186 ft | 481 kts | 140° |
| 2026-05-07 02:55 | 37.95113 | -103.56810 | 35196 ft | 488 kts | 140° |
| 2026-05-07 02:55 | 37.89854 | -103.51247 | 35218 ft | 497 kts | 140° |
| 2026-05-07 02:56 | 37.84536 | -103.45634 | 35176 ft | 499 kts | 141° |
| 2026-05-07 02:56 | 37.79198 | -103.40012 | 35165 ft | 500 kts | 141° |
| 2026-05-07 02:57 | 37.73883 | -103.34422 | 35169 ft | 499 kts | 142° |
| 2026-05-07 02:57 | 37.68537 | -103.28809 | 35174 ft | 499 kts | 142° |
| 2026-05-07 02:58 | 37.63218 | -103.23235 | 35172 ft | 498 kts | 143° |
| 2026-05-07 02:58 | 37.57897 | -103.17669 | 35173 ft | 499 kts | 143° |
| 2026-05-07 02:59 | 37.52524 | -103.12064 | 35167 ft | 500 kts | 143° |
| 2026-05-07 02:59 | 37.47197 | -103.06516 | 35164 ft | 499 kts | 144° |
| 2026-05-07 03:00 | 37.41852 | -103.00957 | 35168 ft | 497 kts | 144° |
| 2026-05-07 03:00 | 37.36537 | -102.95443 | 35159 ft | 499 kts | 144° |
| 2026-05-07 03:01 | 37.31171 | -102.89889 | 35169 ft | 500 kts | 144° |
| 2026-05-07 03:01 | 37.25844 | -102.84389 | 35169 ft | 498 kts | 144° |
| 2026-05-07 03:02 | 37.20477 | -102.78854 | 35181 ft | 498 kts | 145° |
| 2026-05-07 03:02 | 37.15158 | -102.73372 | 35184 ft | 496 kts | 146° |
| 2026-05-07 03:03 | 37.09818 | -102.67883 | 35191 ft | 495 kts | 146° |
| 2026-05-07 03:03 | 37.04482 | -102.62408 | 35202 ft | 494 kts | 146° |
| 2026-05-07 03:04 | 36.99185 | -102.56983 | 35198 ft | 496 kts | 147° |
| 2026-05-07 03:04 | 36.93828 | -102.51515 | 35199 ft | 497 kts | 147° |
| 2026-05-07 03:05 | 36.88511 | -102.46086 | 35183 ft | 494 kts | 148° |
| 2026-05-07 03:05 | 36.83161 | -102.40646 | 35191 ft | 499 kts | 147° |
| 2026-05-07 03:06 | 36.77785 | -102.35188 | 35187 ft | 498 kts | 148° |
| 2026-05-07 03:06 | 36.72432 | -102.29754 | 35188 ft | 497 kts | 149° |
| 2026-05-07 03:07 | 36.67073 | -102.24325 | 35195 ft | 496 kts | 149° |
| 2026-05-07 03:07 | 36.61686 | -102.18887 | 35200 ft | 498 kts | 149° |
| 2026-05-07 03:08 | 36.59009 | -102.16187 | 35431 ft | 499 kts | 149° |
| 2026-05-07 03:08 | 36.56324 | -102.13481 | 35235 ft | 501 kts | 149° |
| 2026-05-07 03:08 | 36.50952 | -102.08061 | 35186 ft | 496 kts | 149° |
| 2026-05-07 03:09 | 36.45559 | -102.02641 | 35182 ft | 498 kts | 150° |
| 2026-05-07 03:09 | 36.40220 | -101.97282 | 35179 ft | 496 kts | 150° |
| 2026-05-07 03:10 | 36.34848 | -101.91911 | 35176 ft | 500 kts | 150° |
| 2026-05-07 03:10 | 36.29433 | -101.86504 | 35173 ft | 499 kts | 151° |
| 2026-05-07 03:11 | 36.24025 | -101.81107 | 35179 ft | 497 kts | 151° |
| 2026-05-07 03:11 | 36.18686 | -101.75781 | 35175 ft | 494 kts | 152° |
| 2026-05-07 03:12 | 36.13303 | -101.70432 | 35171 ft | 499 kts | 152° |
| 2026-05-07 03:12 | 36.07927 | -101.65099 | 35167 ft | 497 kts | 152° |
| 2026-05-07 03:13 | 36.02573 | -101.59805 | 35168 ft | 500 kts | 152° |